Time;durP1;ratioP1;P1;durP2;ratioP2;P2;SDS_P1;SDS_P2;PMS_P1;PMS_P2;Temp;Humidity;BMP_temperature;BMP_pressure;BME280_temperature;BME280_humidity;BME280_pressure;Samples;Min_cycle;Max_cycle;Signal;HPM_P1;HPM_P2
2022/08/16 00:02:32;;;;;;;0.00;0.00;;;20.80;99.90;226.50;231333.00;;;;5069264;28;20268;-75
2022/08/16 00:05:02;;;;;;;0.00;0.00;;;20.80;99.90;226.50;231333.00;;;;5059866;28;20601;-76
2022/08/16 00:07:30;;;;;;;0.00;0.00;;;20.90;99.90;226.50;231333.00;;;;5059906;28;20273;-75
2022/08/16 00:09:59;;;;;;;0.00;0.00;;;20.90;99.90;226.50;231333.00;;;;5071181;28;20225;-75
2022/08/16 00:12:30;;;;;;;0.00;0.00;;;20.80;99.90;226.50;231333.00;;;;5068343;28;20565;-75
2022/08/16 00:15:04;;;;;;;0.00;0.00;;;20.80;99.90;226.50;231333.00;;;;5050877;28;20234;-76
2022/08/16 00:17:38;;;;;;;0.00;0.00;;;20.70;99.90;226.50;231333.00;;;;5058481;28;20204;-75
2022/08/16 00:20:25;;;;;;;0.00;0.00;;;20.50;99.90;226.50;231333.00;;;;5054742;28;20221;-76
2022/08/16 00:22:53;;;;;;;0.00;0.00;;;20.50;99.90;226.50;231333.00;;;;5068971;28;20205;-76
2022/08/16 00:25:25;;;;;;;0.00;0.00;;;20.60;99.90;226.50;231333.00;;;;5054771;28;20566;-76
2022/08/16 00:28:13;;;;;;;0.00;0.00;;;20.60;99.90;226.50;231333.00;;;;5060197;28;20712;-75
2022/08/16 00:30:41;;;;;;;0.00;0.00;;;20.60;99.90;226.50;231333.00;;;;5077237;28;20229;-74
2022/08/16 00:33:12;;;;;;;0.00;0.00;;;20.60;99.90;226.50;231333.00;;;;5071761;28;20201;-75
2022/08/16 00:35:41;;;;;;;0.00;0.00;;;20.60;99.90;226.50;231333.00;;;;5078521;28;20210;-76
2022/08/16 00:38:10;;;;;;;0.00;0.00;;;20.60;99.90;226.50;231333.00;;;;5077343;28;20213;-75
2022/08/16 00:41:00;;;;;;;0.00;0.00;;;20.60;99.90;226.50;231333.00;;;;5071757;28;20195;-75
2022/08/16 00:43:34;;;;;;;0.00;0.00;;;20.60;99.90;226.50;231333.00;;;;5067034;28;20219;-76
2022/08/16 00:46:21;;;;;;;0.00;0.00;;;20.70;99.90;226.50;231333.00;;;;5079496;28;20193;-75
2022/08/16 00:49:07;;;;;;;0.00;0.00;;;20.70;99.90;226.50;231333.00;;;;5066874;28;20236;-76
2022/08/16 00:51:48;;;;;;;0.00;0.00;;;20.80;99.90;226.50;231333.00;;;;5080583;28;20743;-76
2022/08/16 00:54:28;;;;;;;0.00;0.00;;;20.80;99.90;226.50;231333.00;;;;5071711;28;20218;-78
2022/08/16 00:57:01;;;;;;;0.00;0.00;;;20.80;99.90;226.50;231333.00;;;;5077600;28;20302;-77
2022/08/16 00:59:35;;;;;;;0.00;0.00;;;20.90;99.90;226.50;231333.00;;;;5088768;28;20557;-76
2022/08/16 01:02:16;;;;;;;0.00;0.00;;;20.80;99.90;226.50;231333.00;;;;5072611;28;20268;-76
2022/08/16 01:05:01;;;;;;;0.00;0.00;;;20.70;99.90;226.50;231333.00;;;;5063433;28;20193;-77
2022/08/16 01:07:43;;;;;;;0.00;0.00;;;20.80;99.90;226.50;231333.00;;;;5072401;28;20664;-77
2022/08/16 01:10:21;;;;;;;0.00;0.00;;;20.80;99.90;226.50;231333.00;;;;5072615;28;20209;-76
2022/08/16 01:13:05;;;;;;;0.00;0.00;;;20.80;99.90;226.50;231333.00;;;;5059076;28;20202;-77
2022/08/16 01:15:36;;;;;;;0.00;0.00;;;20.80;99.90;226.50;231333.00;;;;5065380;28;20233;-77
2022/08/16 01:18:16;;;;;;;0.00;0.00;;;20.70;99.90;226.50;231333.00;;;;5073707;28;20217;-77
2022/08/16 01:21:19;;;;;;;0.00;0.00;;;20.80;99.90;226.50;231333.00;;;;5072990;28;20189;-78
2022/08/16 01:24:05;;;;;;;0.00;0.00;;;20.70;99.90;226.50;231333.00;;;;5054601;28;20195;-78
2022/08/16 01:27:00;;;;;;;0.00;0.00;;;20.60;99.90;226.50;231333.00;;;;5053909;28;20649;-76
2022/08/16 01:29:41;;;;;;;0.00;0.00;;;20.60;99.90;226.50;231333.00;;;;5051693;28;20712;-77
2022/08/16 01:32:29;;;;;;;0.00;0.00;;;20.60;99.90;226.50;231333.00;;;;5055071;28;20707;-75
2022/08/16 01:35:05;;;;;;;0.00;0.00;;;20.60;99.90;226.50;231333.00;;;;5067133;28;20220;-75
2022/08/16 01:37:42;;;;;;;0.00;0.00;;;20.60;99.90;226.50;231333.00;;;;5054324;28;20733;-77
2022/08/16 01:40:15;;;;;;;0.00;0.00;;;20.60;99.90;226.50;231333.00;;;;5063521;28;20204;-77
2022/08/16 01:42:46;;;;;;;0.00;0.00;;;20.60;99.90;226.50;231333.00;;;;5053082;28;20198;-77
2022/08/16 01:45:18;;;;;;;0.00;0.00;;;20.50;99.90;226.50;231333.00;;;;5060001;28;20209;-77
2022/08/16 01:47:51;;;;;;;0.00;0.00;;;20.50;99.90;226.50;231333.00;;;;5063084;28;20197;-77
2022/08/16 01:50:22;;;;;;;0.00;0.00;;;20.40;99.90;226.50;231333.00;;;;5070875;28;20288;-77
2022/08/16 01:53:12;;;;;;;0.00;0.00;;;20.40;99.90;226.50;231333.00;;;;5061321;28;20197;-77
2022/08/16 01:56:04;;;;;;;0.00;0.00;;;20.40;99.90;226.50;231333.00;;;;5062983;28;20248;-77
2022/08/16 01:58:35;;;;;;;0.00;0.00;;;20.40;99.90;226.50;231333.00;;;;5084793;28;20218;-77
2022/08/16 02:01:06;;;;;;;0.00;0.00;;;20.30;99.90;226.50;231333.00;;;;5057693;28;20423;-77
2022/08/16 02:03:35;;;;;;;0.00;0.00;;;20.30;99.90;226.50;231333.00;;;;5070582;28;20197;-77
2022/08/16 02:06:07;;;;;;;0.00;0.00;;;20.30;99.90;226.50;231333.00;;;;5072990;28;20565;-75
2022/08/16 02:08:35;;;;;;;0.00;0.00;;;20.20;99.90;226.50;231333.00;;;;5062943;28;20291;-77
2022/08/16 02:11:08;;;;;;;0.00;0.00;;;20.10;99.90;226.50;231333.00;;;;5061594;28;20191;-77
2022/08/16 02:13:39;;;;;;;0.00;0.00;;;20.10;99.90;226.50;231333.00;;;;5058121;28;20198;-77
2022/08/16 02:16:11;;;;;;;0.00;0.00;;;20.10;99.90;226.50;231333.00;;;;5051651;28;20230;-77
2022/08/16 02:18:46;;;;;;;0.00;0.00;;;20.10;99.90;226.50;231333.00;;;;5064313;28;20688;-78
2022/08/16 02:21:15;;;;;;;0.00;0.00;;;20.20;99.90;226.50;231333.00;;;;5068033;28;20540;-78
2022/08/16 02:23:44;;;;;;;0.00;0.00;;;20.20;99.90;226.50;231333.00;;;;5070226;28;20586;-77
2022/08/16 02:26:15;;;;;;;0.00;0.00;;;20.00;99.90;226.50;231333.00;;;;5091016;28;20204;-76
2022/08/16 02:28:45;;;;;;;0.00;0.00;;;20.00;99.90;226.50;231333.00;;;;5091428;28;20270;-75
2022/08/16 02:31:15;;;;;;;0.00;0.00;;;20.00;99.90;226.50;231333.00;;;;5077153;28;20707;-78
2022/08/16 02:33:44;;;;;;;0.00;0.00;;;20.00;99.90;226.50;231333.00;;;;5052249;28;20189;-78
2022/08/16 02:36:25;;;;;;;0.00;0.00;;;20.00;99.90;226.50;231333.00;;;;5051074;28;20226;-77
2022/08/16 02:39:18;;;;;;;0.00;0.00;;;20.00;99.90;226.50;231333.00;;;;5050836;28;20701;-79
2022/08/16 02:41:52;;;;;;;0.00;0.00;;;20.10;99.90;226.50;231333.00;;;;5051197;28;20201;-79
2022/08/16 02:44:25;;;;;;;0.00;0.00;;;20.10;99.90;226.50;231333.00;;;;5068136;28;20198;-79
2022/08/16 02:46:55;;;;;;;0.00;0.00;;;20.10;99.90;226.50;231333.00;;;;5070719;28;20556;-76
2022/08/16 02:49:25;;;;;;;0.00;0.00;;;20.10;99.90;226.50;231333.00;;;;5070258;28;20217;-75
2022/08/16 02:52:15;;;;;;;0.00;0.00;;;20.20;99.90;226.50;231333.00;;;;5052369;28;20194;-75
2022/08/16 02:54:59;;;;;;;0.00;0.00;;;20.20;99.90;226.50;231333.00;;;;5070126;28;20213;-75
2022/08/16 02:57:29;;;;;;;0.00;0.00;;;20.30;99.90;226.50;231333.00;;;;5069025;28;20197;-75
2022/08/16 02:59:58;;;;;;;0.00;0.00;;;20.20;99.90;226.50;231333.00;;;;5070071;28;20271;-76
2022/08/16 03:02:29;;;;;;;0.00;0.00;;;20.10;99.90;226.50;231333.00;;;;5067719;28;20308;-77
2022/08/16 03:05:13;;;;;;;0.00;0.00;;;20.00;99.90;226.50;231333.00;;;;5050469;28;20202;-76
2022/08/16 03:07:43;;;;;;;0.00;0.00;;;20.00;99.90;226.50;231333.00;;;;5051209;28;20684;-75
2022/08/16 03:10:18;;;;;;;0.00;0.00;;;19.80;99.90;226.50;231333.00;;;;5056575;28;20823;-75
2022/08/16 03:12:50;;;;;;;0.00;0.00;;;19.80;99.90;226.50;231333.00;;;;5057213;28;20255;-76
2022/08/16 03:15:24;;;;;;;0.00;0.00;;;19.70;99.90;226.50;231333.00;;;;5052979;28;20312;-76
2022/08/16 03:17:55;;;;;;;0.00;0.00;;;19.70;99.90;226.50;231333.00;;;;5050410;28;20296;-75
2022/08/16 03:20:26;;;;;;;0.00;0.00;;;19.60;99.90;226.50;231333.00;;;;5049883;28;20201;-76
2022/08/16 03:23:04;;;;;;;0.00;0.00;;;19.70;99.90;226.50;231333.00;;;;5055761;28;20221;-76
2022/08/16 03:25:35;;;;;;;0.00;0.00;;;19.70;99.90;226.50;231333.00;;;;5049934;28;20221;-76
2022/08/16 03:28:13;;;;;;;0.00;0.00;;;19.80;99.90;226.50;231333.00;;;;5067040;28;20699;-76
2022/08/16 03:30:44;;;;;;;0.00;0.00;;;19.80;99.90;226.50;231333.00;;;;5068855;28;20197;-76
2022/08/16 03:33:16;;;;;;;0.00;0.00;;;19.80;99.90;226.50;231333.00;;;;5061040;28;20218;-76
2022/08/16 03:35:50;;;;;;;0.00;0.00;;;19.80;99.90;226.50;231333.00;;;;5054431;28;20217;-75
2022/08/16 03:38:31;;;;;;;0.00;0.00;;;19.80;99.90;226.50;231333.00;;;;5066134;28;20221;-75
2022/08/16 03:41:11;;;;;;;0.00;0.00;;;19.80;99.90;226.50;231333.00;;;;5061036;28;20337;-74
2022/08/16 03:43:59;;;;;;;0.00;0.00;;;19.80;99.90;226.50;231333.00;;;;5065287;28;20307;-74
2022/08/16 03:46:29;;;;;;;0.00;0.00;;;19.70;99.90;226.50;231333.00;;;;5085715;28;20202;-74
2022/08/16 03:49:25;;;;;;;0.00;0.00;;;19.50;99.90;226.50;231333.00;;;;5082694;28;20308;-75
2022/08/16 03:52:07;;;;;;;0.00;0.00;;;19.50;99.90;226.50;231333.00;;;;5053568;28;20213;-76
2022/08/16 03:54:37;;;;;;;0.00;0.00;;;19.50;99.90;226.50;231333.00;;;;5069351;28;20189;-76
2022/08/16 03:57:20;;;;;;;0.00;0.00;;;19.50;99.90;226.50;231333.00;;;;5069429;28;20190;-76
2022/08/16 03:59:52;;;;;;;0.00;0.00;;;19.60;99.90;226.50;231333.00;;;;5075562;28;20263;-76
2022/08/16 04:02:22;;;;;;;0.00;0.00;;;19.50;99.90;226.50;231333.00;;;;5063623;28;20198;-75
2022/08/16 04:05:01;;;;;;;0.00;0.00;;;19.40;99.90;226.50;231333.00;;;;5055683;28;20190;-75
2022/08/16 04:07:30;;;;;;;0.00;0.00;;;19.40;99.90;226.50;231333.00;;;;5059444;28;20190;-74
2022/08/16 04:10:02;;;;;;;0.00;0.00;;;19.30;99.90;226.50;231333.00;;;;5073632;28;20437;-74
2022/08/16 04:12:50;;;;;;;0.00;0.00;;;19.30;99.90;226.50;231333.00;;;;5072649;28;20193;-74
2022/08/16 04:15:24;;;;;;;0.00;0.00;;;19.30;99.90;226.50;231333.00;;;;5060716;28;20313;-74
2022/08/16 04:18:08;;;;;;;0.00;0.00;;;19.30;99.90;226.50;231333.00;;;;5055864;28;20215;-74
2022/08/16 04:20:37;;;;;;;0.00;0.00;;;19.30;99.90;226.50;231333.00;;;;5066176;28;20199;-73
2022/08/16 04:23:08;;;;;;;0.00;0.00;;;19.40;99.90;226.50;231333.00;;;;5070352;28;20241;-73
2022/08/16 04:25:39;;;;;;;0.00;0.00;;;19.40;99.90;226.50;231333.00;;;;5066165;28;20202;-73
2022/08/16 04:28:09;;;;;;;0.00;0.00;;;19.40;99.90;226.50;231333.00;;;;5052252;28;20309;-75
2022/08/16 04:30:59;;;;;;;0.00;0.00;;;19.40;99.90;226.50;231333.00;;;;5064685;28;20194;-73
2022/08/16 04:33:28;;;;;;;0.00;0.00;;;19.40;99.90;226.50;231333.00;;;;5081206;28;20205;-74
2022/08/16 04:36:02;;;;;;;0.00;0.00;;;19.40;99.90;226.50;231333.00;;;;5060893;28;20249;-73
2022/08/16 04:38:31;;;;;;;0.00;0.00;;;19.40;99.90;226.50;231333.00;;;;5091251;28;20251;-73
2022/08/16 04:41:00;;;;;;;0.00;0.00;;;19.40;99.90;226.50;231333.00;;;;5055834;28;20226;-74
2022/08/16 04:43:29;;;;;;;0.00;0.00;;;19.50;99.90;226.50;231333.00;;;;5056346;28;20324;-73
2022/08/16 04:46:02;;;;;;;0.05;0.05;;;19.40;99.90;226.50;231333.00;;;;5068428;28;20673;-74
2022/08/16 04:48:36;;;;;;;0.00;0.00;;;19.30;99.90;226.50;231333.00;;;;5064638;28;20245;-73
2022/08/16 04:51:11;;;;;;;0.00;0.00;;;19.20;99.90;226.50;231333.00;;;;5056133;28;20194;-74
2022/08/16 04:53:47;;;;;;;0.00;0.00;;;19.20;99.90;226.50;231333.00;;;;5052329;28;20213;-73
2022/08/16 04:56:20;;;;;;;0.00;0.00;;;19.10;99.90;226.50;231333.00;;;;5069438;28;20646;-74
2022/08/16 04:58:50;;;;;;;0.00;0.00;;;19.00;99.90;226.50;231333.00;;;;5052081;28;20592;-73
2022/08/16 05:01:26;;;;;;;0.00;0.00;;;19.10;99.90;226.50;231333.00;;;;5064226;28;20193;-73
2022/08/16 05:04:15;;;;;;;0.00;0.00;;;19.00;99.90;226.50;231333.00;;;;5066301;28;20296;-74
2022/08/16 05:06:49;;;;;;;0.00;0.00;;;19.10;99.90;226.50;231333.00;;;;5062453;28;20189;-74
2022/08/16 05:09:24;;;;;;;0.00;0.00;;;19.10;99.90;226.50;231333.00;;;;5069533;28;20270;-75
2022/08/16 05:11:55;;;;;;;0.00;0.00;;;19.10;99.90;226.50;231333.00;;;;5054305;28;20230;-76
2022/08/16 05:14:25;;;;;;;0.00;0.00;;;19.00;99.90;226.50;231333.00;;;;5065806;28;20189;-75
2022/08/16 05:17:17;;;;;;;0.00;0.00;;;19.10;99.90;226.50;231333.00;;;;5056303;28;20272;-71
2022/08/16 05:19:47;;;;;;;0.00;0.00;;;19.10;99.90;226.50;231333.00;;;;5076861;28;20245;-72
2022/08/16 05:22:27;;;;;;;0.00;0.00;;;19.10;99.90;226.50;231333.00;;;;5085144;28;20212;-72
2022/08/16 05:24:58;;;;;;;0.00;0.00;;;19.20;99.90;226.50;231333.00;;;;5067925;28;20545;-71
2022/08/16 05:27:27;;;;;;;0.00;0.00;;;19.20;99.90;226.50;231333.00;;;;5071874;28;20259;-72
2022/08/16 05:29:55;;;;;;;0.00;0.00;;;19.20;99.90;226.50;231333.00;;;;5071107;28;20278;-72
2022/08/16 05:32:35;;;;;;;0.00;0.00;;;19.20;99.90;226.50;231333.00;;;;5071204;28;20198;-72
2022/08/16 05:35:16;;;;;;;0.00;0.00;;;19.30;99.90;226.50;231333.00;;;;5071128;28;20194;-72
2022/08/16 05:38:00;;;;;;;0.00;0.00;;;19.30;99.90;226.50;231333.00;;;;5070852;28;20238;-72
2022/08/16 05:40:30;;;;;;;0.00;0.00;;;19.40;99.90;226.50;231333.00;;;;5071005;28;20194;-72
2022/08/16 05:43:00;;;;;;;0.00;0.00;;;19.40;99.90;226.50;231333.00;;;;5071421;28;20198;-72
2022/08/16 05:45:31;;;;;;;0.00;0.00;;;19.40;99.90;226.50;231333.00;;;;5070769;28;20198;-72
2022/08/16 05:48:06;;;;;;;0.00;0.00;;;19.50;99.90;226.50;231333.00;;;;5071056;28;20222;-72
2022/08/16 05:50:56;;;;;;;0.00;0.00;;;19.40;99.90;226.50;231333.00;;;;5071567;28;20197;-72
2022/08/16 05:53:24;;;;;;;0.00;0.00;;;19.50;99.90;226.50;231333.00;;;;5071320;28;20247;-71
2022/08/16 05:56:07;;;;;;;0.00;0.00;;;19.50;99.90;226.50;231333.00;;;;5088309;28;20231;-72
2022/08/16 05:58:39;;;;;;;0.00;0.00;;;19.60;99.90;226.50;231333.00;;;;5070655;28;20214;-72
2022/08/16 06:01:09;;;;;;;0.00;0.00;;;19.70;99.90;226.50;231333.00;;;;5072504;28;20606;-72
2022/08/16 06:03:42;;;;;;;0.00;0.00;;;19.70;99.90;226.50;231333.00;;;;5070894;28;20614;-71
2022/08/16 06:06:27;;;;;;;0.00;0.00;;;19.80;99.90;226.50;231333.00;;;;5088142;28;20229;-71
2022/08/16 06:08:57;;;;;;;0.00;0.00;;;19.70;99.90;226.50;231333.00;;;;5070666;28;20304;-71
2022/08/16 06:11:25;;;;;;;0.00;0.00;;;19.70;99.90;226.50;231333.00;;;;5070937;28;20204;-72
2022/08/16 06:13:59;;;;;;;0.00;0.00;;;19.80;99.90;226.50;231333.00;;;;5071118;28;20243;-72
2022/08/16 06:16:35;;;;;;;0.00;0.00;;;19.70;99.90;226.50;231333.00;;;;5071454;28;20218;-72
2022/08/16 06:19:05;;;;;;;0.00;0.00;;;19.90;99.90;226.50;231333.00;;;;5070388;28;20213;-72
2022/08/16 06:21:35;;;;;;;0.00;0.00;;;19.90;99.90;226.50;231333.00;;;;5071298;28;20200;-72
2022/08/16 06:24:05;;;;;;;0.00;0.00;;;19.90;99.90;226.50;231333.00;;;;5070925;28;20221;-72
2022/08/16 06:26:53;;;;;;;0.00;0.00;;;19.90;99.90;226.50;231333.00;;;;5070809;28;20202;-72
2022/08/16 06:29:26;;;;;;;0.00;0.00;;;20.00;99.90;226.50;231333.00;;;;5070745;28;20245;-71
2022/08/16 06:31:55;;;;;;;0.00;0.00;;;20.10;99.90;226.50;231333.00;;;;5088174;28;20289;-72
2022/08/16 06:34:27;;;;;;;0.00;0.00;;;20.20;99.90;226.50;231333.00;;;;5070814;28;20301;-72
2022/08/16 06:37:15;;;;;;;0.00;0.00;;;20.30;99.90;226.50;231333.00;;;;5071768;28;20703;-72
2022/08/16 06:39:45;;;;;;;0.00;0.00;;;20.40;99.90;226.50;231333.00;;;;5070567;28;20646;-72
2022/08/16 06:42:43;;;;;;;0.00;0.00;;;20.50;99.90;226.50;231333.00;;;;5067824;28;20209;-72
2022/08/16 06:45:29;;;;;;;0.00;0.00;;;20.60;99.90;226.50;231333.00;;;;5070615;28;20221;-72
2022/08/16 06:48:04;;;;;;;0.00;0.00;;;20.70;99.90;226.50;231333.00;;;;5087536;28;20649;-71
2022/08/16 06:50:34;;;;;;;0.00;0.00;;;20.80;99.90;226.50;231333.00;;;;5069733;28;20209;-72
2022/08/16 06:53:06;;;;;;;0.00;0.00;;;20.90;99.90;226.50;231333.00;;;;5072227;28;20267;-71
2022/08/16 06:55:45;;;;;;;0.00;0.00;;;20.90;99.90;226.50;231333.00;;;;5087482;28;20745;-71
2022/08/16 06:58:15;;;;;;;0.00;0.00;;;20.90;99.90;226.50;231333.00;;;;5070076;28;20225;-71
2022/08/16 07:01:05;;;;;;;0.00;0.00;;;20.90;99.90;226.50;231333.00;;;;5075279;28;20198;-72
2022/08/16 07:03:43;;;;;;;0.00;0.00;;;21.10;99.90;226.50;231333.00;;;;5082795;28;20197;-71
2022/08/16 07:06:26;;;;;;;0.00;0.00;;;21.20;99.90;226.50;231333.00;;;;5065711;28;20299;-71
2022/08/16 07:09:00;;;;;;;0.00;0.00;;;21.30;99.90;226.50;231333.00;;;;5060766;28;20217;-71
2022/08/16 07:11:32;;;;;;;0.00;0.00;;;21.40;99.90;226.50;231333.00;;;;5066861;28;20202;-71
2022/08/16 07:14:26;;;;;;;0.00;0.00;;;21.50;99.90;226.50;231333.00;;;;5065017;28;20293;-71
2022/08/16 07:16:59;;;;;;;0.00;0.00;;;21.70;99.90;226.50;231333.00;;;;5051192;28;20233;-71
2022/08/16 07:19:32;;;;;;;0.00;0.00;;;21.80;99.90;226.50;231333.00;;;;5049954;28;20222;-71
2022/08/16 07:22:26;;;;;;;0.00;0.00;;;22.00;99.90;226.50;231333.00;;;;5049423;28;20567;-71
2022/08/16 07:25:13;;;;;;;0.00;0.00;;;22.10;99.90;226.50;231333.00;;;;5050213;28;20196;-71
2022/08/16 07:27:43;;;;;;;0.00;0.00;;;22.30;99.90;226.50;231333.00;;;;5050328;28;20681;-72
2022/08/16 07:30:18;;;;;;;0.00;0.00;;;22.30;99.90;226.50;231333.00;;;;5048935;28;20329;-72
2022/08/16 07:33:09;;;;;;;0.00;0.00;;;22.50;99.90;226.50;231333.00;;;;5054232;28;20194;-71
2022/08/16 07:35:43;;;;;;;0.00;0.00;;;22.60;99.90;226.50;231333.00;;;;5055195;28;20197;-71
2022/08/16 07:38:18;;;;;;;0.00;0.00;;;22.60;99.90;226.50;231333.00;;;;5053753;28;20221;-71
2022/08/16 07:41:02;;;;;;;0.00;0.00;;;22.70;99.90;226.50;231333.00;;;;5054702;28;20545;-71
2022/08/16 07:43:40;;;;;;;0.00;0.00;;;22.80;99.90;226.50;231333.00;;;;5053741;28;20198;-71
2022/08/16 07:46:10;;;;;;;0.00;0.00;;;22.90;99.90;226.50;231333.00;;;;5053604;28;20285;-71
2022/08/16 07:49:01;;;;;;;0.00;0.00;;;23.10;99.90;226.50;231333.00;;;;5068676;28;20217;-71
2022/08/16 07:51:35;;;;;;;0.00;0.00;;;23.10;99.90;226.50;231333.00;;;;5071075;28;20602;-71
2022/08/16 07:54:10;;;;;;;0.00;0.00;;;23.30;99.90;226.50;231333.00;;;;5053640;28;20244;-71
2022/08/16 07:56:50;;;;;;;0.00;0.00;;;23.30;99.90;226.50;231333.00;;;;5070643;28;20279;-72
2022/08/16 07:59:20;;;;;;;0.00;0.00;;;23.40;99.90;226.50;231333.00;;;;5056501;28;20226;-71
2022/08/16 08:01:50;;;;;;;0.00;0.00;;;23.50;99.90;226.50;231333.00;;;;5075084;28;20213;-71
2022/08/16 08:04:21;;;;;;;0.00;0.00;;;23.70;99.90;226.50;231333.00;;;;5058004;28;20198;-72
2022/08/16 08:06:50;;;;;;;0.00;0.00;;;23.80;99.90;226.50;231333.00;;;;5053366;28;20194;-72
2022/08/16 08:09:20;;;;;;;0.00;0.00;;;23.80;99.90;226.50;231333.00;;;;5056852;28;20226;-72
2022/08/16 08:11:50;;;;;;;0.00;0.00;;;23.90;99.90;226.50;231333.00;;;;5060172;28;20633;-72
2022/08/16 08:14:39;;;;;;;0.00;0.00;;;24.00;99.90;226.50;231333.00;;;;5072344;28;20201;-72
2022/08/16 08:17:07;;;;;;;0.00;0.00;;;24.10;99.90;226.50;231333.00;;;;5063823;28;20198;-71
2022/08/16 08:19:36;;;;;;;0.00;0.00;;;24.20;99.90;226.50;231333.00;;;;5052905;28;20249;-72
2022/08/16 08:22:09;;;;;;;0.00;0.00;;;24.30;99.90;226.50;231333.00;;;;5053777;28;20268;-71
2022/08/16 08:24:53;;;;;;;0.00;0.00;;;24.20;99.90;226.50;231333.00;;;;5053190;28;20190;-72
2022/08/16 08:27:27;;;;;;;0.00;0.00;;;24.40;99.90;226.50;231333.00;;;;5052806;28;20194;-72
2022/08/16 08:30:01;;;;;;;0.00;0.00;;;24.40;99.90;226.50;231333.00;;;;5053011;28;20221;-71
2022/08/16 08:32:50;;;;;;;0.00;0.00;;;24.50;99.90;226.50;231333.00;;;;5052169;28;20503;-72
2022/08/16 08:35:34;;;;;;;0.00;0.00;;;24.60;99.90;226.50;231333.00;;;;5062176;28;20211;-72
2022/08/16 08:38:07;;;;;;;0.00;0.00;;;24.60;99.90;226.50;231333.00;;;;5052273;28;20230;-71
2022/08/16 08:40:39;;;;;;;0.00;0.00;;;24.70;99.90;226.50;231333.00;;;;5069496;28;20198;-72
2022/08/16 08:43:10;;;;;;;0.00;0.00;;;24.70;99.90;226.50;231333.00;;;;5066035;28;20562;-72
2022/08/16 08:45:54;;;;;;;0.00;0.00;;;24.70;99.90;226.50;231333.00;;;;5055993;28;20281;-72
2022/08/16 08:48:24;;;;;;;0.00;0.00;;;24.80;99.90;226.50;231333.00;;;;5058494;28;20313;-72
2022/08/16 08:51:11;;;;;;;0.00;0.00;;;24.90;99.90;226.50;231333.00;;;;5052649;28;20214;-71
2022/08/16 08:53:49;;;;;;;0.00;0.00;;;25.10;99.90;226.50;231333.00;;;;5057982;28;20221;-71
2022/08/16 08:56:31;;;;;;;0.00;0.00;;;25.10;99.90;226.50;231333.00;;;;5089290;28;20676;-71
2022/08/16 08:59:20;;;;;;;0.00;0.00;;;25.00;99.90;226.50;231333.00;;;;5072198;28;20608;-71
2022/08/16 09:01:51;;;;;;;0.00;0.00;;;25.10;99.90;226.50;231333.00;;;;5072225;28;20206;-71
2022/08/16 09:04:40;;;;;;;0.00;0.00;;;25.10;99.90;226.50;231333.00;;;;5089044;28;20198;-71
2022/08/16 09:07:08;;;;;;;0.00;0.00;;;25.20;99.90;226.50;231333.00;;;;5072315;28;20209;-71
2022/08/16 09:09:38;;;;;;;0.00;0.00;;;25.30;99.90;226.50;231333.00;;;;5088624;28;20270;-71
2022/08/16 09:12:12;;;;;;;0.00;0.00;;;25.50;99.90;226.50;231333.00;;;;5072181;28;20212;-71
2022/08/16 09:15:10;;;;;;;0.00;0.00;;;25.70;99.90;226.50;231333.00;;;;5073302;28;20181;-70
2022/08/16 09:17:42;;;;;;;0.00;0.00;;;25.90;99.90;226.50;231333.00;;;;5088710;28;21083;-70
2022/08/16 09:20:25;;;;;;;0.00;0.00;;;26.00;99.90;226.50;231333.00;;;;5071592;28;20581;-71
2022/08/16 09:22:54;;;;;;;0.00;0.00;;;26.30;99.90;226.50;231333.00;;;;5071953;28;20212;-71
2022/08/16 09:25:29;;;;;;;0.00;0.00;;;26.30;99.90;226.50;231333.00;;;;5086430;28;20287;-71
2022/08/16 09:28:10;;;;;;;0.00;0.00;;;26.30;99.90;226.50;231333.00;;;;5071707;28;20703;-72
2022/08/16 09:30:45;;;;;;;0.00;0.00;;;26.30;99.60;226.50;231333.00;;;;5072236;28;20200;-72
2022/08/16 09:33:17;;;;;;;0.00;0.00;;;26.50;98.90;226.50;231333.00;;;;5073527;28;20272;-72
2022/08/16 09:35:49;;;;;;;0.00;0.00;;;26.20;98.80;226.50;231333.00;;;;5073331;28;20218;-72
2022/08/16 09:38:22;;;;;;;0.00;0.00;;;26.50;99.10;226.50;231333.00;;;;5072701;28;20275;-72
2022/08/16 09:41:00;;;;;;;0.00;0.00;;;26.90;98.40;226.50;231333.00;;;;5073398;28;20186;-71
2022/08/16 09:43:31;;;;;;;0.00;0.00;;;27.10;97.90;226.50;231333.00;;;;5073553;28;20182;-71
2022/08/16 09:46:19;;;;;;;0.00;0.00;;;27.20;97.80;226.50;231333.00;;;;5065331;28;20542;-71
2022/08/16 09:49:08;;;;;;;0.00;0.00;;;26.90;98.20;226.50;231333.00;;;;5052541;28;20230;-71
2022/08/16 09:51:39;;;;;;;0.00;0.00;;;27.00;98.30;226.50;231333.00;;;;5052998;28;20194;-71
2022/08/16 09:54:09;;;;;;;0.00;0.00;;;26.60;98.50;226.50;231333.00;;;;5064455;28;20197;-71
2022/08/16 09:56:44;;;;;;;0.00;0.00;;;26.20;99.10;226.50;231333.00;;;;5072758;28;20303;-71
2022/08/16 09:59:24;;;;;;;0.00;0.00;;;26.30;99.40;226.50;231333.00;;;;5072278;28;20271;-71
2022/08/16 10:01:58;;;;;;;0.00;0.00;;;26.30;99.10;226.50;231333.00;;;;5073147;28;20649;-71
2022/08/16 10:04:26;;;;;;;0.00;0.00;;;26.40;99.40;226.50;231333.00;;;;5072735;28;20373;-71
2022/08/16 10:07:04;;;;;;;0.00;0.00;;;26.40;99.50;226.50;231333.00;;;;5072924;28;20632;-71
2022/08/16 10:09:44;;;;;;;0.00;0.00;;;26.60;99.70;226.50;231333.00;;;;5071732;28;20614;-71
2022/08/16 10:15:19;;;;;;;0.00;0.00;;;26.90;99.00;226.50;231333.00;;;;5072931;28;20219;-72
2022/08/16 10:17:52;;;;;;;0.00;0.00;;;26.80;98.60;226.50;231333.00;;;;5088346;28;20660;-73
2022/08/16 10:20:33;;;;;;;0.00;0.00;;;26.50;99.00;226.50;231333.00;;;;5072020;28;20225;-73
2022/08/16 10:23:03;;;;;;;0.00;0.00;;;26.60;98.80;226.50;231333.00;;;;5071399;28;20545;-73
2022/08/16 10:25:39;;;;;;;0.00;0.00;;;26.70;98.80;226.50;231333.00;;;;5071941;28;20194;-73
2022/08/16 10:28:29;;;;;;;0.00;0.00;;;27.00;97.90;226.50;231333.00;;;;5072621;28;20225;-72
2022/08/16 10:31:03;;;;;;;0.00;0.00;;;27.00;97.90;226.50;231333.00;;;;5076772;28;20193;-72
2022/08/16 10:33:33;;;;;;;0.00;0.00;;;27.20;97.30;226.50;231333.00;;;;5080072;28;20468;-72
2022/08/16 10:36:08;;;;;;;0.00;0.00;;;27.10;96.90;226.50;231333.00;;;;5077073;28;20269;-72
2022/08/16 10:38:40;;;;;;;0.00;0.00;;;26.80;96.90;226.50;231333.00;;;;5078083;28;20688;-71
2022/08/16 10:41:10;;;;;;;0.00;0.00;;;26.80;97.10;226.50;231333.00;;;;5078701;28;20201;-71
2022/08/16 10:43:43;;;;;;;0.00;0.00;;;26.70;97.20;226.50;231333.00;;;;5078459;28;20239;-71
2022/08/16 10:46:18;;;;;;;0.00;0.00;;;26.70;97.30;226.50;231333.00;;;;5075529;28;20236;-72
2022/08/16 10:49:06;;;;;;;0.00;0.00;;;27.00;97.30;226.50;231333.00;;;;5071698;28;20217;-72
2022/08/16 10:51:37;;;;;;;0.00;0.00;;;27.40;97.00;226.50;231333.00;;;;5072274;28;20192;-72
2022/08/16 10:54:25;;;;;;;0.00;0.00;;;27.70;96.50;226.50;231333.00;;;;5071794;28;20193;-72
2022/08/16 10:56:58;;;;;;;0.00;0.00;;;28.10;95.20;226.50;231333.00;;;;5072030;28;20227;-72
2022/08/16 10:59:27;;;;;;;0.00;0.00;;;28.30;94.60;226.50;231333.00;;;;5071356;28;20550;-72
2022/08/16 11:02:15;;;;;;;0.00;0.00;;;28.40;94.00;226.50;231333.00;;;;5068419;28;20194;-72
2022/08/16 11:05:05;;;;;;;0.00;0.00;;;28.50;93.70;226.50;231333.00;;;;5051071;28;20255;-72
2022/08/16 11:07:37;;;;;;;0.00;0.00;;;28.40;93.70;226.50;231333.00;;;;5051526;28;20673;-72
2022/08/16 11:10:25;;;;;;;0.00;0.00;;;28.60;93.50;226.50;231333.00;;;;5050312;28;20248;-72
2022/08/16 11:13:17;;;;;;;0.00;0.00;;;29.00;93.50;226.50;231333.00;;;;5051445;28;20543;-72
2022/08/16 11:16:06;;;;;;;0.00;0.00;;;29.20;92.50;226.50;231333.00;;;;5050888;28;20236;-72
2022/08/16 11:18:56;;;;;;;0.00;0.00;;;29.30;92.90;226.50;231333.00;;;;5051504;28;20226;-72
2022/08/16 11:21:41;;;;;;;0.00;0.00;;;29.30;92.90;226.50;231333.00;;;;5051028;28;20197;-72
2022/08/16 11:24:29;;;;;;;0.00;0.00;;;29.00;92.80;226.50;231333.00;;;;5051044;28;20202;-72